Orange City, FL

6:13 PM EDT on September 21, 2014 (GMT -0400)
Galveston Boulevard | Change Station
CLOSE
Current Station
Personal Weather Station
Location: Deltona, FL
Elevation: 69 ft
Nearby Weather Stations

Elev 69 ft 28.92 °N, 81.27 °W | Updated 2 minutes ago

Partly Cloudy
Partly Cloudy
83.2 °F
Feels Like 83 °F
N
0.0
Wind Variable Wind from East
Gusts 6.0 mph

Today
High -- | Low -- °F
--% Chance of Precip.
Yesterday
High -- | Low -- °F
Precip. -- in
7:13 AM 7:22 PM
Waning Crescent, 5% visible
Pressure 29.99 in
Visibility 10.0 miles
Clouds Clear
Heat Index 83 °F
Dew Point 56 °F
Humidity 40%
Rainfall 0.01 in
Snow Depth Not available.
UV 2 out of 12
Pollen 6.90 out of 12
Air Quality Not available.
Flu Activity Not available.
METAR KDED 212155Z AUTO 06009KT 10SM CLR 28/20 A2999 RMK AO1

More Conditions Fewer Conditions

Pressure 29.99 in
Visibility 10.0 miles
Clouds Clear
Heat Index 83 °F
Dew Point 56 °F
Humidity 40%
Rainfall 0.01 in
Snow Depth Not available.
UV 2 out of 12
Pollen 6.90 out of 12
Air Quality Not available.
Flu Activity Not available.
METAR KDED 212155Z AUTO 06009KT 10SM CLR 28/20 A2999 RMK AO1

More Conditions Fewer Conditions

Nowcast | as of 3:54 PM EDT on September 21, 2014

A stalled frontal boundary lying across the space coast and Osceola County will help produce showers and a few storms this afternoon. Current radar shows spotty light rain east of the I-4 corridor with heavier showers mainly over the Treasure Coast and Lake Okeechobee. Locations along from Vero Beach to Fort Pierce and Okeechobee will see rain in the area through late afternoon. Rainfall amounts around a quarter to half an inch will will be possible in these areas. A few spots may see up to an inch. Additional details...including graphics are available online at: http://www.Srh.NOAA.Gov/mlb/blog.Php

×

10-Day Weather Forecast

Almanac

Astronomy

Sep. 21, 2014 Rise Set
Actual Time 7:13 AM EDT 7:22 PM EDT
Civil Twilight 6:49 AM EDT 7:46 PM EDT
Nautical Twilight 6:21 AM EDT 8:14 PM EDT
Astronomical Twilight 5:54 AM EDT 8:41 PM EDT
Moon 4:54 AM EDT 5:51 PM EDT
Length of Visible Light 12h 57m
Length of Day
12h 09m
Tomorrow will be 1m 44s shorter.
Waning Crescent, 5% of the Moon is Illuminated
Today
Waning Crescent
Sep 24
New
Oct 1
First Quarter
Oct 8
Full
Oct 15
Last Quarter

Today's Extremes

State Highs State Lows

Community

WunderPhotos

Upload Photos

1,755,269 photos uploaded!

WunderBlogs® & News

Nearby

Snow Depth

Station Depth Elevation
No new snow has been reported.

Earthquake Activity

City Distance Mag. Time & Date
No recent earthquake activity has been reported nearby.
Minimum magnitude displayed is 2.5.

Coastal Water Temperatures

Place Temperature
Trident Pier, FL 84.0 °F
Mayport (Bar Pilots Dock), FL 82.0 °F
Fernandina Beach, FL 80.1 °F

Nearby Weather Stations